Time;durP1;ratioP1;P1;durP2;ratioP2;P2;SDS_P1;SDS_P2;PMS_P1;PMS_P2;Temp;Humidity;BMP_temperature;BMP_pressure;BME280_temperature;BME280_humidity;BME280_pressure;Samples;Min_cycle;Max_cycle;Signal;HPM_P1;HPM_P2
2020/12/05 00:01:13;;;;;;;45.13;21.27;;;2.40;99.90;;;;;;4988703;28;20518;-68
2020/12/05 00:03:39;;;;;;;46.43;20.77;;;2.60;99.90;;;;;;4988175;28;20069;-70
2020/12/05 00:06:06;;;;;;;43.83;20.13;;;2.50;99.90;;;;;;4989865;28;20487;-68
2020/12/05 00:08:33;;;;;;;42.13;20.50;;;2.50;99.90;;;;;;4988162;28;20419;-67
2020/12/05 00:11:00;;;;;;;45.67;19.80;;;2.50;99.90;;;;;;4987422;28;20137;-67
2020/12/05 00:13:27;;;;;;;43.20;20.60;;;2.50;99.90;;;;;;4990456;28;20042;-67
2020/12/05 00:15:54;;;;;;;42.47;20.00;;;2.40;99.90;;;;;;4988660;28;20054;-67
2020/12/05 00:18:21;;;;;;;43.40;20.73;;;2.50;99.90;;;;;;4990532;28;20066;-67
2020/12/05 00:20:48;;;;;;;36.63;17.87;;;2.60;99.90;;;;;;4988976;28;20047;-68
2020/12/05 00:23:14;;;;;;;41.27;20.73;;;2.60;99.90;;;;;;4989978;28;20513;-67
2020/12/05 00:25:42;;;;;;;35.57;17.73;;;2.60;99.90;;;;;;4987402;28;20506;-66
2020/12/05 00:28:08;;;;;;;35.77;17.53;;;2.50;99.90;;;;;;4990073;28;20050;-67
2020/12/05 00:30:35;;;;;;;36.70;17.53;;;2.60;99.90;;;;;;4989992;28;20050;-67
2020/12/05 00:33:03;;;;;;;37.23;17.53;;;2.70;99.90;;;;;;4986348;28;20050;-67
2020/12/05 00:35:30;;;;;;;39.23;17.97;;;2.70;99.90;;;;;;4990393;28;20042;-67
2020/12/05 00:37:57;;;;;;;39.87;18.23;;;2.60;99.90;;;;;;4989784;28;20081;-67
2020/12/05 00:40:24;;;;;;;39.17;19.47;;;2.60;99.90;;;;;;4989638;28;20050;-67
2020/12/05 00:42:51;;;;;;;41.93;19.20;;;2.60;99.90;;;;;;4989058;28;20058;-71
2020/12/05 00:45:17;;;;;;;42.70;18.63;;;2.50;99.90;;;;;;4990100;28;20080;-67
2020/12/05 00:47:44;;;;;;;39.53;17.83;;;2.50;99.90;;;;;;4990054;28;20046;-67
2020/12/05 00:50:11;;;;;;;40.43;17.80;;;2.60;99.90;;;;;;4988622;28;20070;-69
2020/12/05 00:52:38;;;;;;;39.97;19.23;;;2.60;99.90;;;;;;4990232;28;20536;-67
2020/12/05 00:55:05;;;;;;;34.50;17.33;;;2.70;99.90;;;;;;4988762;28;20422;-69
2020/12/05 00:57:31;;;;;;;39.67;16.97;;;2.60;99.90;;;;;;4990512;28;20054;-68
2020/12/05 00:59:58;;;;;;;34.17;16.93;;;2.60;99.90;;;;;;4989500;28;20061;-67
2020/12/05 01:02:26;;;;;;;38.37;17.53;;;2.60;99.90;;;;;;4989560;28;20215;-71
2020/12/05 01:04:55;;;;;;;38.13;17.77;;;2.50;99.90;;;;;;4989678;28;20046;-68
2020/12/05 01:07:25;;;;;;;36.23;17.50;;;2.50;99.90;;;;;;4987562;28;20065;-68
2020/12/05 01:09:51;;;;;;;43.77;19.83;;;2.50;99.90;;;;;;4990461;28;20109;-68
2020/12/05 01:12:18;;;;;;;38.90;18.67;;;2.50;99.90;;;;;;4988348;28;20073;-67
2020/12/05 01:14:45;;;;;;;39.47;18.03;;;2.50;99.90;;;;;;4989947;28;20050;-67
2020/12/05 01:17:11;;;;;;;34.47;16.63;;;2.40;99.90;;;;;;4988948;28;20054;-68
2020/12/05 01:19:38;;;;;;;32.83;17.23;;;2.40;99.90;;;;;;4990403;28;20055;-67
2020/12/05 01:22:05;;;;;;;36.97;17.97;;;2.30;99.90;;;;;;4988459;28;20077;-70
2020/12/05 01:24:33;;;;;;;39.27;18.47;;;2.20;99.90;;;;;;4990274;28;20483;-68
2020/12/05 01:26:59;;;;;;;37.53;18.40;;;2.10;99.90;;;;;;4990330;28;20058;-71
2020/12/05 01:29:26;;;;;;;35.43;16.80;;;2.00;99.90;;;;;;4988921;28;20050;-68
2020/12/05 01:31:52;;;;;;;37.47;17.03;;;1.80;99.90;;;;;;4989783;28;20104;-67
2020/12/05 01:34:19;;;;;;;36.80;18.23;;;1.80;99.90;;;;;;4988548;28;20514;-67
2020/12/05 01:36:46;;;;;;;32.17;16.73;;;1.70;99.90;;;;;;4989608;28;20050;-68
2020/12/05 01:39:13;;;;;;;32.27;17.97;;;1.70;99.90;;;;;;4988256;28;20065;-67
2020/12/05 01:41:41;;;;;;;37.43;17.70;;;1.50;99.90;;;;;;4989158;28;20051;-69
2020/12/05 01:44:08;;;;;;;37.63;18.17;;;1.50;99.90;;;;;;4986158;28;20042;-68
2020/12/05 01:46:38;;;;;;;35.57;17.57;;;1.40;99.90;;;;;;4989324;28;20051;-67
2020/12/05 01:49:05;;;;;;;35.80;18.00;;;1.40;99.90;;;;;;4989971;28;20055;-67
2020/12/05 01:51:36;;;;;;;32.03;16.67;;;1.40;99.90;;;;;;4983286;28;20050;-68
2020/12/05 01:54:03;;;;;;;34.40;16.83;;;1.40;99.90;;;;;;4993306;28;20142;-68
2020/12/05 01:56:30;;;;;;;36.37;17.87;;;1.30;99.90;;;;;;4992472;28;20078;-67
2020/12/05 01:58:57;;;;;;;39.57;18.87;;;1.30;99.90;;;;;;4993683;28;20070;-68
2020/12/05 02:01:26;;;;;;;37.37;17.80;;;1.40;99.90;;;;;;4994393;28;20046;-67
2020/12/05 02:03:54;;;;;;;41.83;19.07;;;1.30;99.90;;;;;;4996665;28;20062;-67
2020/12/05 02:06:40;;;;;;;40.63;19.10;;;1.20;99.90;;;;;;4994840;28;20050;-68
2020/12/05 02:09:14;;;;;;;34.47;16.97;;;1.20;99.90;;;;;;4991657;28;20074;-69
2020/12/05 02:11:46;;;;;;;37.07;16.97;;;1.20;99.90;;;;;;4991518;28;20683;-69
2020/12/05 02:14:19;;;;;;;36.83;17.33;;;1.20;99.90;;;;;;4990492;28;20466;-67
2020/12/05 02:16:46;;;;;;;33.20;17.20;;;1.30;99.90;;;;;;4992404;28;20042;-67
2020/12/05 02:19:19;;;;;;;35.23;16.80;;;1.20;99.90;;;;;;4989203;28;20050;-67
2020/12/05 02:21:48;;;;;;;37.00;17.10;;;1.20;99.90;;;;;;4992210;28;20104;-67
2020/12/05 02:24:16;;;;;;;35.03;16.27;;;1.10;99.90;;;;;;4986847;28;20101;-69
2020/12/05 02:26:47;;;;;;;39.33;17.77;;;1.30;99.90;;;;;;4993202;28;20050;-68
2020/12/05 02:29:14;;;;;;;37.60;17.27;;;1.30;99.90;;;;;;4986762;28;20054;-67
2020/12/05 02:31:42;;;;;;;34.43;16.93;;;1.10;99.90;;;;;;4992611;28;20848;-67
2020/12/05 02:34:09;;;;;;;37.67;16.33;;;1.20;99.90;;;;;;4989611;28;20046;-71
2020/12/05 02:36:39;;;;;;;40.53;19.03;;;1.40;99.90;;;;;;4993015;28;20050;-66
2020/12/05 02:39:09;;;;;;;35.60;16.47;;;1.20;99.90;;;;;;4991972;28;20100;-67
2020/12/05 02:41:38;;;;;;;36.63;17.53;;;1.10;99.90;;;;;;4992087;28;20053;-68
2020/12/05 02:44:06;;;;;;;38.33;17.97;;;1.00;99.90;;;;;;4992612;28;20046;-71
2020/12/05 02:46:33;;;;;;;41.43;18.97;;;0.90;99.90;;;;;;4991767;28;20050;-67
2020/12/05 02:49:03;;;;;;;39.27;18.60;;;0.90;99.90;;;;;;4992792;28;20081;-68
2020/12/05 02:51:29;;;;;;;38.23;17.90;;;0.90;99.90;;;;;;4988492;28;20047;-68
2020/12/05 02:53:56;;;;;;;38.27;18.10;;;0.90;99.90;;;;;;4992623;28;20495;-67
2020/12/05 02:56:23;;;;;;;35.53;17.33;;;1.00;99.90;;;;;;4991026;28;20050;-67
2020/12/05 02:58:51;;;;;;;35.70;17.53;;;1.10;99.90;;;;;;4992129;28;20090;-67
2020/12/05 03:01:18;;;;;;;34.83;17.50;;;1.00;99.90;;;;;;4991006;28;20050;-68
2020/12/05 03:03:45;;;;;;;42.53;17.97;;;1.00;99.90;;;;;;4989284;28;20427;-69
2020/12/05 03:06:11;;;;;;;35.77;17.03;;;0.90;99.90;;;;;;4988772;28;20053;-67
2020/12/05 03:08:38;;;;;;;36.80;17.70;;;0.80;99.90;;;;;;4991084;28;20042;-68
2020/12/05 03:11:04;;;;;;;35.07;16.60;;;0.80;99.90;;;;;;4991542;28;20400;-67
2020/12/05 03:13:31;;;;;;;42.50;18.67;;;0.80;99.90;;;;;;4988241;28;20050;-67
2020/12/05 03:15:59;;;;;;;37.00;17.83;;;0.80;99.90;;;;;;4992073;28;20451;-69
2020/12/05 03:18:25;;;;;;;36.27;17.47;;;0.90;99.90;;;;;;4991049;28;20053;-67
2020/12/05 03:20:52;;;;;;;36.70;17.03;;;0.80;99.90;;;;;;4988678;28;20046;-69
2020/12/05 03:23:18;;;;;;;36.77;17.37;;;0.80;99.90;;;;;;4990744;28;20507;-67
2020/12/05 03:25:45;;;;;;;37.27;17.17;;;0.70;99.90;;;;;;4990327;28;20514;-67
2020/12/05 03:28:12;;;;;;;40.30;18.77;;;0.90;99.90;;;;;;4991554;28;20050;-67
2020/12/05 03:30:39;;;;;;;43.30;19.23;;;0.60;99.90;;;;;;4989938;28;20046;-67
2020/12/05 03:33:10;;;;;;;41.00;18.13;;;0.60;99.90;;;;;;4991952;28;20057;-67
2020/12/05 03:35:37;;;;;;;39.60;17.67;;;0.50;99.90;;;;;;4990468;28;20046;-66
2020/12/05 03:38:04;;;;;;;39.70;17.10;;;0.50;99.90;;;;;;4991231;28;20050;-67
2020/12/05 03:40:31;;;;;;;40.30;18.83;;;0.50;99.90;;;;;;4986439;28;20050;-67
2020/12/05 03:42:57;;;;;;;41.93;18.67;;;0.50;99.90;;;;;;4991475;28;20046;-67
2020/12/05 03:45:24;;;;;;;38.37;18.00;;;0.50;99.90;;;;;;4990099;28;20054;-66
2020/12/05 03:47:51;;;;;;;42.33;19.27;;;0.40;99.90;;;;;;4988586;28;20050;-67
2020/12/05 03:50:18;;;;;;;42.43;18.57;;;0.50;99.90;;;;;;4990678;28;20046;-67
2020/12/05 03:52:45;;;;;;;40.17;17.93;;;0.50;99.90;;;;;;4990088;28;20042;-67
2020/12/05 03:55:11;;;;;;;40.47;18.70;;;0.50;99.90;;;;;;4988350;28;20057;-67
2020/12/05 03:57:38;;;;;;;41.03;18.60;;;0.40;99.90;;;;;;4990085;28;20054;-67
2020/12/05 04:00:05;;;;;;;42.40;19.57;;;0.40;99.90;;;;;;4991139;28;20065;-69
2020/12/05 04:02:32;;;;;;;42.53;18.03;;;0.30;99.90;;;;;;4987077;28;20053;-67
2020/12/05 04:04:58;;;;;;;47.87;18.80;;;0.30;99.90;;;;;;4990631;28;20065;-67
2020/12/05 04:07:26;;;;;;;39.80;17.27;;;0.40;99.90;;;;;;4990245;28;20411;-69
2020/12/05 04:09:52;;;;;;;40.10;17.83;;;0.40;99.90;;;;;;4988416;28;20355;-67
2020/12/05 04:12:19;;;;;;;38.23;17.97;;;0.50;99.90;;;;;;4992758;28;20046;-67
2020/12/05 04:14:46;;;;;;;42.17;18.53;;;0.40;99.90;;;;;;4991971;28;20506;-66
2020/12/05 04:17:12;;;;;;;40.27;19.00;;;0.40;99.90;;;;;;4990236;28;20050;-66
2020/12/05 04:19:39;;;;;;;42.17;18.53;;;0.40;99.90;;;;;;4991271;28;20410;-69
2020/12/05 04:22:06;;;;;;;42.93;19.90;;;0.50;99.90;;;;;;4992013;28;20491;-67
2020/12/05 04:24:33;;;;;;;46.33;19.47;;;0.50;99.90;;;;;;4986851;28;20042;-66
2020/12/05 04:27:00;;;;;;;38.43;18.00;;;0.50;99.90;;;;;;4990740;28;20049;-67
2020/12/05 04:29:27;;;;;;;38.97;17.60;;;0.60;99.90;;;;;;4989894;28;20053;-67
2020/12/05 04:31:53;;;;;;;33.77;17.00;;;0.60;99.90;;;;;;4986727;28;20105;-69
2020/12/05 04:34:20;;;;;;;39.17;17.77;;;0.60;99.90;;;;;;4990379;28;20051;-67
2020/12/05 04:36:47;;;;;;;35.83;15.77;;;0.60;99.90;;;;;;4989706;28;20141;-66
2020/12/05 04:39:14;;;;;;;38.77;17.23;;;0.50;99.90;;;;;;4988202;28;20051;-68
2020/12/05 04:41:42;;;;;;;39.73;17.33;;;0.50;99.90;;;;;;4988783;28;20050;-67
2020/12/05 04:44:10;;;;;;;39.07;16.93;;;0.40;99.90;;;;;;4990331;28;20042;-67
2020/12/05 04:46:36;;;;;;;33.30;17.23;;;0.40;99.90;;;;;;4989064;28;20052;-67
2020/12/05 04:49:03;;;;;;;32.33;14.53;;;0.40;99.90;;;;;;4990211;28;20046;-67
2020/12/05 04:51:36;;;;;;;38.20;16.97;;;0.40;99.90;;;;;;4988580;28;20054;-68
2020/12/05 04:54:04;;;;;;;35.93;15.37;;;0.40;99.90;;;;;;4987328;28;20598;-67
2020/12/05 04:56:36;;;;;;;35.20;15.93;;;0.60;99.90;;;;;;4989032;28;20050;-68
2020/12/05 04:59:06;;;;;;;33.00;13.50;;;0.50;99.90;;;;;;4986326;28;20078;-66
2020/12/05 05:01:36;;;;;;;30.43;14.20;;;0.50;99.90;;;;;;4989358;28;20050;-67
2020/12/05 05:04:06;;;;;;;33.73;15.07;;;0.50;99.90;;;;;;4988618;28;20046;-67
2020/12/05 05:06:33;;;;;;;31.27;15.00;;;0.60;99.90;;;;;;4989899;28;20042;-66
2020/12/05 05:09:00;;;;;;;34.33;15.27;;;0.70;99.90;;;;;;4988993;28;20054;-67
2020/12/05 05:11:28;;;;;;;38.77;16.10;;;0.70;99.90;;;;;;4989908;28;20121;-67
2020/12/05 05:13:58;;;;;;;35.97;15.87;;;0.70;99.90;;;;;;4986200;28;20469;-67
2020/12/05 05:16:28;;;;;;;32.10;16.20;;;0.70;99.90;;;;;;4989857;28;20533;-68
2020/12/05 05:18:56;;;;;;;38.27;16.90;;;0.70;99.90;;;;;;4989207;28;20059;-67
2020/12/05 05:21:36;;;;;;;32.87;14.93;;;0.70;99.90;;;;;;4989298;28;20046;-66
2020/12/05 05:24:11;;;;;;;36.50;16.30;;;0.70;99.90;;;;;;4989448;28;20046;-69
2020/12/05 05:26:38;;;;;;;32.87;16.23;;;0.60;99.90;;;;;;4990644;28;20054;-66
2020/12/05 05:29:05;;;;;;;35.57;16.40;;;0.60;99.90;;;;;;4994158;28;20061;-69
2020/12/05 05:31:50;;;;;;;36.37;16.97;;;0.60;99.90;;;;;;4992656;28;20507;-67
2020/12/05 05:34:22;;;;;;;37.10;16.47;;;0.50;99.90;;;;;;4992955;28;20058;-68
2020/12/05 05:36:49;;;;;;;33.50;16.33;;;0.50;99.90;;;;;;4990701;28;20058;-67
2020/12/05 05:39:17;;;;;;;31.90;15.60;;;0.60;99.90;;;;;;4995837;28;20607;-68
2020/12/05 05:41:48;;;;;;;33.30;15.40;;;0.60;99.90;;;;;;4997401;28;20042;-67
2020/12/05 05:44:16;;;;;;;37.07;16.10;;;0.60;99.90;;;;;;4998313;28;20054;-70
2020/12/05 05:46:46;;;;;;;32.87;15.10;;;0.50;99.90;;;;;;4992755;28;20050;-66
2020/12/05 05:49:14;;;;;;;31.87;15.40;;;0.60;99.90;;;;;;4993412;28;20054;-74
2020/12/05 05:51:43;;;;;;;34.20;15.20;;;0.60;99.90;;;;;;4991877;28;20065;-67
2020/12/05 05:54:22;;;;;;;36.53;15.83;;;0.50;99.90;;;;;;4991157;28;20046;-67
2020/12/05 05:57:04;;;;;;;33.63;15.60;;;0.60;99.90;;;;;;4990420;28;20062;-67
2020/12/05 05:59:31;;;;;;;32.33;15.80;;;0.70;99.90;;;;;;4991512;28;20046;-67
2020/12/05 06:01:59;;;;;;;33.93;16.10;;;0.60;99.90;;;;;;4992190;28;20054;-70
2020/12/05 06:04:28;;;;;;;32.97;16.70;;;0.50;99.90;;;;;;4990628;28;20042;-67
2020/12/05 06:06:57;;;;;;;34.10;16.63;;;0.50;99.90;;;;;;4993501;28;20054;-67
2020/12/05 06:09:26;;;;;;;35.67;16.70;;;0.60;99.90;;;;;;4992818;28;20408;-70
2020/12/05 06:11:55;;;;;;;36.00;16.53;;;0.50;99.90;;;;;;4992673;28;20047;-67
2020/12/05 06:14:22;;;;;;;37.13;16.77;;;0.50;99.90;;;;;;4992346;28;20061;-68
2020/12/05 06:16:53;;;;;;;37.77;17.23;;;0.50;99.90;;;;;;4992884;28;20057;-67
2020/12/05 06:19:21;;;;;;;37.60;17.40;;;0.50;99.90;;;;;;4992431;28;20051;-68
2020/12/05 06:21:50;;;;;;;35.87;15.67;;;0.70;99.90;;;;;;4993035;28;20050;-68
2020/12/05 06:24:38;;;;;;;38.67;17.30;;;0.70;99.90;;;;;;4992635;28;20050;-67
2020/12/05 06:27:07;;;;;;;39.57;17.07;;;0.70;99.90;;;;;;4991132;28;20514;-67
2020/12/05 06:29:38;;;;;;;36.07;16.13;;;0.70;99.90;;;;;;4992280;28;20050;-69
2020/12/05 06:32:04;;;;;;;40.60;18.33;;;0.70;99.90;;;;;;4992796;28;20495;-67
2020/12/05 06:34:40;;;;;;;36.20;16.43;;;0.70;99.90;;;;;;4993223;28;20057;-70
2020/12/05 06:37:11;;;;;;;37.27;17.57;;;0.80;99.90;;;;;;4992812;28;20051;-67
2020/12/05 06:39:38;;;;;;;39.70;17.43;;;0.70;99.90;;;;;;4992809;28;20058;-67
2020/12/05 06:42:18;;;;;;;37.77;17.67;;;0.80;99.90;;;;;;4991744;28;20407;-67
2020/12/05 06:44:44;;;;;;;35.93;17.37;;;0.80;99.90;;;;;;4993179;28;20054;-69
2020/12/05 06:47:23;;;;;;;37.83;17.33;;;0.60;99.90;;;;;;4991951;28;20055;-67
2020/12/05 06:49:57;;;;;;;36.50;16.70;;;0.60;99.90;;;;;;4993134;28;20054;-67
2020/12/05 06:52:37;;;;;;;36.27;18.27;;;0.70;99.90;;;;;;4991525;28;20061;-67
2020/12/05 06:55:12;;;;;;;37.10;16.93;;;0.70;99.90;;;;;;4992595;28;20050;-67
2020/12/05 06:57:41;;;;;;;41.40;18.27;;;0.70;99.90;;;;;;4991939;28;20506;-67
2020/12/05 07:00:22;;;;;;;37.70;17.23;;;0.80;99.90;;;;;;4992284;28;20491;-67
2020/12/05 07:02:57;;;;;;;40.90;18.27;;;0.80;99.90;;;;;;4991356;28;20054;-67
2020/12/05 07:05:29;;;;;;;41.33;19.17;;;0.70;99.90;;;;;;4992676;28;20047;-67
2020/12/05 07:07:59;;;;;;;38.43;17.80;;;0.70;99.90;;;;;;4992248;28;20049;-67
2020/12/05 07:10:52;;;;;;;40.50;17.57;;;0.80;99.90;;;;;;4992456;28;20140;-67
2020/12/05 07:13:21;;;;;;;43.17;17.80;;;0.80;99.90;;;;;;4994764;28;20077;-69
2020/12/05 07:15:48;;;;;;;38.70;18.73;;;0.70;99.90;;;;;;4995059;28;20054;-68
2020/12/05 07:18:26;;;;;;;44.53;18.57;;;0.70;99.90;;;;;;4995419;28;20046;-67
2020/12/05 07:20:55;;;;;;;38.57;17.73;;;0.60;99.90;;;;;;4993922;28;20054;-67
2020/12/05 07:23:22;;;;;;;41.70;18.67;;;0.50;99.90;;;;;;4994954;28;20117;-67
2020/12/05 07:25:49;;;;;;;38.53;18.93;;;0.50;99.90;;;;;;4994192;28;20454;-68
2020/12/05 07:28:17;;;;;;;41.40;18.60;;;0.50;99.90;;;;;;4994075;28;20054;-67
2020/12/05 07:30:44;;;;;;;41.97;17.57;;;0.60;99.90;;;;;;4993531;28;20521;-67
2020/12/05 07:33:13;;;;;;;41.07;18.63;;;0.70;99.90;;;;;;4995432;28;20061;-66
2020/12/05 07:35:40;;;;;;;40.70;18.47;;;0.60;99.90;;;;;;4995522;28;20056;-67
2020/12/05 07:38:15;;;;;;;39.97;18.80;;;0.70;99.90;;;;;;4996316;28;20058;-67
2020/12/05 07:40:42;;;;;;;42.47;18.97;;;0.80;99.90;;;;;;4995803;28;20133;-69
2020/12/05 07:43:18;;;;;;;38.63;18.20;;;0.80;99.90;;;;;;4994734;28;20069;-67
2020/12/05 07:45:46;;;;;;;39.92;18.20;;;0.90;99.90;;;;;;4994489;28;20585;-66
2020/12/05 07:48:15;;;;;;;41.70;18.90;;;0.90;99.90;;;;;;4994549;28;20450;-66
2020/12/05 07:50:42;;;;;;;40.00;18.20;;;1.00;99.90;;;;;;4992949;28;20065;-68
2020/12/05 07:53:27;;;;;;;40.30;18.40;;;0.90;99.90;;;;;;4992465;28;20058;-66
2020/12/05 07:55:54;;;;;;;42.27;19.57;;;1.00;99.90;;;;;;4992407;28;20054;-67
2020/12/05 07:58:21;;;;;;;45.13;19.47;;;1.10;99.90;;;;;;4990802;28;20050;-67
2020/12/05 08:00:52;;;;;;;38.27;18.93;;;1.10;99.90;;;;;;4991913;28;20061;-66
2020/12/05 08:04:01;;;;;;;42.57;19.50;;;1.10;99.90;;;;;;4991008;28;20062;-67
2020/12/05 08:06:56;;;;;;;45.10;19.30;;;1.20;99.90;;;;;;4991708;28;20132;-66
2020/12/05 08:09:33;;;;;;;44.33;19.53;;;1.30;99.90;;;;;;4990773;28;20058;-66
2020/12/05 08:12:01;;;;;;;45.35;21.20;;;1.40;99.90;;;;;;4991221;28;20054;-66
2020/12/05 08:14:33;;;;;;;41.60;19.30;;;1.40;99.90;;;;;;4990964;28;20495;-66
2020/12/05 08:17:03;;;;;;;39.37;18.77;;;1.50;99.90;;;;;;4993585;28;20141;-67
2020/12/05 08:19:31;;;;;;;34.47;17.73;;;1.40;99.90;;;;;;4986817;28;20090;-64
2020/12/05 08:22:07;;;;;;;41.23;18.43;;;1.40;99.90;;;;;;4978139;28;20064;-64
2020/12/05 08:24:36;;;;;;;41.55;19.85;;;1.50;99.90;;;;;;4971934;28;20059;-64
2020/12/05 08:27:04;;;;;;;42.17;19.23;;;1.40;99.90;;;;;;4971312;28;20047;-64
2020/12/05 08:29:35;;;;;;;39.90;18.67;;;1.40;99.90;;;;;;4972867;28;20463;-64
2020/12/05 08:32:02;;;;;;;46.00;21.50;;;1.40;99.90;;;;;;4971379;28;20089;-64
2020/12/05 08:34:30;;;;;;;39.90;18.37;;;1.40;99.90;;;;;;4972160;28;20058;-64
2020/12/05 08:37:01;;;;;;;40.10;19.93;;;1.40;99.90;;;;;;4970692;28;20050;-64
2020/12/05 08:39:32;;;;;;;42.30;19.07;;;1.40;99.90;;;;;;4971815;28;20508;-64
2020/12/05 08:41:59;;;;;;;43.13;20.60;;;1.50;99.90;;;;;;4970384;28;20102;-63
2020/12/05 08:44:30;;;;;;;43.00;20.53;;;1.60;99.90;;;;;;4971563;28;20480;-64
2020/12/05 08:47:08;;;;;;;40.43;19.77;;;1.60;99.90;;;;;;4971837;28;20078;-64
2020/12/05 08:49:40;;;;;;;42.03;19.73;;;1.60;99.90;;;;;;4978690;28;20059;-64
2020/12/05 08:52:07;;;;;;;42.50;18.47;;;1.60;99.90;;;;;;4990915;28;20061;-64
2020/12/05 08:54:43;;;;;;;46.97;19.37;;;1.60;99.90;;;;;;4990383;28;20105;-64
2020/12/05 08:57:12;;;;;;;42.42;18.63;;;1.70;99.90;;;;;;4991275;28;20562;-64
2020/12/05 08:59:39;;;;;;;43.50;18.57;;;1.70;99.90;;;;;;4989831;28;20694;-65
2020/12/05 09:02:06;;;;;;;43.23;19.03;;;1.70;99.90;;;;;;4977543;28;20054;-64
2020/12/05 09:04:35;;;;;;;45.37;19.37;;;1.80;99.90;;;;;;4970713;28;20055;-64
2020/12/05 09:07:10;;;;;;;44.37;19.43;;;1.70;99.90;;;;;;4972006;28;20054;-64
2020/12/05 09:09:37;;;;;;;40.47;19.63;;;1.70;99.90;;;;;;4971645;28;20058;-64
2020/12/05 09:12:05;;;;;;;44.63;19.07;;;1.80;99.90;;;;;;4971810;28;20050;-64
2020/12/05 09:14:33;;;;;;;41.60;19.03;;;1.80;99.90;;;;;;4971610;28;20061;-64
2020/12/05 09:17:00;;;;;;;47.67;20.13;;;1.90;99.90;;;;;;4971938;28;20055;-64
2020/12/05 09:19:28;;;;;;;39.53;18.77;;;1.90;99.90;;;;;;4976657;28;20054;-65
2020/12/05 09:21:55;;;;;;;45.37;20.07;;;2.00;99.90;;;;;;4987933;28;20077;-65
2020/12/05 09:24:22;;;;;;;39.40;19.43;;;1.90;99.90;;;;;;4989689;28;20499;-64
2020/12/05 09:26:56;;;;;;;36.30;17.87;;;2.00;99.90;;;;;;4988902;28;20058;-64
2020/12/05 09:29:23;;;;;;;44.30;20.93;;;2.10;99.90;;;;;;4991886;28;20065;-63
2020/12/05 09:31:51;;;;;;;54.63;21.00;;;2.00;99.90;;;;;;4994933;28;20069;-63
2020/12/05 09:34:31;;;;;;;42.83;19.80;;;2.00;99.90;;;;;;4997756;28;20069;-63
2020/12/05 09:36:57;;;;;;;43.03;20.03;;;2.10;99.90;;;;;;4981143;28;20085;-69
2020/12/05 09:39:24;;;;;;;49.60;20.07;;;2.00;99.90;;;;;;4993451;28;20046;-70
2020/12/05 09:41:51;;;;;;;44.63;19.87;;;2.00;99.90;;;;;;4979889;28;20061;-71
2020/12/05 09:44:17;;;;;;;45.73;19.83;;;2.00;99.90;;;;;;4970646;28;20055;-70
2020/12/05 09:46:44;;;;;;;43.57;19.07;;;2.00;99.90;;;;;;4986463;28;20062;-68
2020/12/05 09:49:11;;;;;;;39.90;19.10;;;2.00;99.90;;;;;;4973420;28;20430;-67
2020/12/05 09:51:38;;;;;;;41.30;19.60;;;2.10;99.90;;;;;;4982172;28;20046;-67
2020/12/05 09:54:07;;;;;;;39.13;19.03;;;2.10;99.90;;;;;;4976784;28;20427;-67
2020/12/05 09:56:34;;;;;;;41.73;20.80;;;2.20;99.90;;;;;;4984656;28;20065;-71
2020/12/05 09:59:01;;;;;;;40.47;20.73;;;2.20;99.90;;;;;;4972988;28;20415;-67
2020/12/05 10:01:28;;;;;;;41.17;19.73;;;2.30;99.90;;;;;;4983920;28;20519;-67
2020/12/05 10:03:55;;;;;;;43.80;18.77;;;2.40;99.90;;;;;;4978866;28;20082;-67
2020/12/05 10:06:23;;;;;;;41.13;19.47;;;2.40;99.90;;;;;;4976211;28;20062;-68
2020/12/05 10:08:50;;;;;;;38.83;18.97;;;2.30;99.90;;;;;;4986550;28;20400;-68
2020/12/05 10:11:16;;;;;;;39.43;18.60;;;2.40;99.90;;;;;;4972990;28;20046;-68
2020/12/05 10:13:43;;;;;;;42.13;20.33;;;2.40;99.90;;;;;;4983299;28;20042;-69
2020/12/05 10:16:10;;;;;;;40.83;20.57;;;2.40;99.90;;;;;;4984610;28;20050;-67
2020/12/05 10:18:36;;;;;;;46.20;20.13;;;2.40;99.90;;;;;;4981029;28;20047;-66
2020/12/05 10:21:03;;;;;;;45.33;22.37;;;2.60;99.90;;;;;;4975736;28;20047;-63
2020/12/05 10:23:32;;;;;;;42.90;21.83;;;2.50;99.90;;;;;;4988930;28;20047;-64
2020/12/05 10:25:58;;;;;;;39.57;20.60;;;2.60;99.90;;;;;;4979782;28;20080;-64
2020/12/05 10:28:25;;;;;;;42.37;20.90;;;2.50;99.90;;;;;;4988227;28;20055;-64
2020/12/05 10:30:52;;;;;;;39.97;18.43;;;2.60;99.90;;;;;;4993199;28;20158;-64
2020/12/05 10:33:18;;;;;;;43.27;20.33;;;2.60;99.90;;;;;;4994288;28;20061;-64
2020/12/05 10:35:45;;;;;;;40.23;19.57;;;2.70;99.90;;;;;;4994561;28;20058;-63
2020/12/05 10:38:12;;;;;;;44.67;20.97;;;2.80;99.90;;;;;;4992680;28;20056;-64
2020/12/05 10:40:40;;;;;;;43.70;20.50;;;2.80;99.90;;;;;;4993852;28;20054;-64
2020/12/05 10:43:06;;;;;;;41.30;20.63;;;2.80;99.90;;;;;;4994331;28;20097;-64
2020/12/05 10:45:34;;;;;;;46.10;20.53;;;3.00;99.90;;;;;;4992295;28;20082;-64
2020/12/05 10:48:00;;;;;;;43.10;18.83;;;3.10;99.90;;;;;;4992892;28;20454;-64
2020/12/05 10:50:27;;;;;;;40.03;19.97;;;3.10;99.90;;;;;;4992233;28;20100;-66
2020/12/05 10:52:54;;;;;;;39.57;19.43;;;3.20;99.90;;;;;;4993724;28;20514;-67
2020/12/05 10:55:20;;;;;;;41.33;18.47;;;3.20;99.90;;;;;;4991866;28;20065;-66
2020/12/05 10:57:48;;;;;;;43.00;19.93;;;3.20;99.90;;;;;;4993103;28;20058;-64
2020/12/05 11:00:15;;;;;;;36.97;17.77;;;3.40;99.90;;;;;;4991504;28;20058;-65
2020/12/05 11:02:41;;;;;;;40.63;18.73;;;3.50;99.90;;;;;;4984738;28;20112;-65
2020/12/05 11:05:08;;;;;;;40.57;17.47;;;3.40;99.90;;;;;;4987891;28;20046;-67
2020/12/05 11:07:35;;;;;;;40.13;18.03;;;3.40;99.90;;;;;;4990911;28;20050;-65
2020/12/05 11:10:02;;;;;;;39.27;18.27;;;3.30;99.90;;;;;;4986096;28;20046;-69
2020/12/05 11:12:29;;;;;;;36.70;17.20;;;3.30;99.90;;;;;;4987652;28;20054;-66
2020/12/05 11:14:57;;;;;;;41.20;18.67;;;3.30;99.90;;;;;;4990773;28;20167;-67
2020/12/05 11:17:24;;;;;;;37.63;18.50;;;3.30;99.90;;;;;;4990709;28;20061;-68
2020/12/05 11:19:50;;;;;;;41.23;19.27;;;3.30;99.90;;;;;;4991608;28;20121;-66
2020/12/05 11:22:17;;;;;;;38.93;20.10;;;3.30;99.90;;;;;;4989415;28;20049;-66
2020/12/05 11:24:44;;;;;;;39.50;19.37;;;3.30;99.90;;;;;;4991106;28;20046;-66
2020/12/05 11:27:10;;;;;;;46.30;21.47;;;3.30;99.90;;;;;;4991472;28;20058;-67
2020/12/05 11:29:37;;;;;;;40.47;18.83;;;3.30;99.90;;;;;;4989800;28;20491;-66
2020/12/05 11:32:04;;;;;;;44.47;19.53;;;3.30;99.90;;;;;;4990719;28;20082;-66
2020/12/05 11:34:31;;;;;;;41.97;19.43;;;3.40;99.90;;;;;;4989981;28;20055;-67
2020/12/05 11:36:58;;;;;;;43.40;21.03;;;3.30;99.90;;;;;;4990994;28;20050;-66
2020/12/05 11:39:24;;;;;;;43.23;20.27;;;3.30;99.90;;;;;;4989561;28;20054;-69
2020/12/05 11:41:51;;;;;;;36.03;17.50;;;3.30;99.90;;;;;;4989837;28;20057;-66
2020/12/05 11:44:18;;;;;;;37.60;19.00;;;3.30;99.90;;;;;;4990302;28;20076;-66
2020/12/05 11:46:44;;;;;;;36.27;18.00;;;3.30;99.90;;;;;;4991087;28;20522;-66
2020/12/05 11:49:15;;;;;;;40.20;19.33;;;3.30;99.90;;;;;;4990862;28;20073;-69
2020/12/05 11:51:42;;;;;;;39.80;18.70;;;3.30;99.90;;;;;;4987161;28;20074;-67
2020/12/05 11:54:08;;;;;;;42.67;20.73;;;3.30;99.90;;;;;;4990542;28;20058;-66
2020/12/05 11:56:35;;;;;;;39.73;19.20;;;3.20;99.90;;;;;;4989017;28;20058;-67
2020/12/05 11:59:02;;;;;;;41.10;19.50;;;3.30;99.90;;;;;;4988588;28;20049;-66
2020/12/05 12:01:28;;;;;;;42.67;20.60;;;3.30;99.90;;;;;;4989237;28;20042;-66
2020/12/05 12:03:55;;;;;;;39.97;19.80;;;3.30;99.90;;;;;;4989871;28;20632;-69
2020/12/05 12:06:23;;;;;;;44.80;19.77;;;3.30;99.90;;;;;;4989136;28;20057;-66
2020/12/05 12:08:49;;;;;;;45.60;20.43;;;3.30;99.90;;;;;;4989972;28;20054;-66
2020/12/05 12:11:17;;;;;;;42.97;19.83;;;3.30;99.90;;;;;;4989851;28;20050;-68
2020/12/05 12:13:44;;;;;;;39.50;18.43;;;3.30;99.90;;;;;;4989752;28;20495;-69
2020/12/05 12:16:12;;;;;;;41.37;19.33;;;3.40;99.90;;;;;;4987830;28;20130;-65
2020/12/05 12:18:39;;;;;;;42.73;19.83;;;3.40;99.90;;;;;;4989454;28;20043;-67
2020/12/05 12:21:06;;;;;;;39.47;19.83;;;3.40;99.90;;;;;;4982783;28;20043;-66
2020/12/05 12:23:33;;;;;;;40.53;19.57;;;3.40;99.90;;;;;;4980795;28;20039;-66
2020/12/05 12:26:00;;;;;;;41.53;19.10;;;3.40;99.90;;;;;;4990144;28;20047;-66
2020/12/05 12:28:27;;;;;;;39.80;19.27;;;3.30;99.90;;;;;;4989848;28;20506;-66
2020/12/05 12:30:54;;;;;;;40.50;20.00;;;3.30;99.90;;;;;;4990210;28;20443;-69
2020/12/05 12:33:20;;;;;;;40.40;19.77;;;3.30;99.90;;;;;;4992590;28;20054;-66
2020/12/05 12:35:47;;;;;;;43.43;20.00;;;3.40;99.90;;;;;;4991985;28;20060;-66
2020/12/05 12:38:14;;;;;;;35.63;17.90;;;3.40;99.90;;;;;;4995426;28;20046;-69
2020/12/05 12:40:41;;;;;;;37.70;18.07;;;3.40;99.90;;;;;;5001795;28;20046;-68
2020/12/05 12:43:08;;;;;;;41.03;20.27;;;3.50;99.90;;;;;;5003290;28;20054;-69